createdAt,value
2022-09-04T00:00:06.451Z,18.30
2022-09-04T00:02:51.424Z,18.30
2022-09-04T00:05:28.559Z,18.30
2022-09-04T00:08:16.374Z,18.30
2022-09-04T00:11:02.151Z,18.30
2022-09-04T00:13:43.802Z,18.30
2022-09-04T00:16:25.606Z,18.30
2022-09-04T00:19:09.903Z,18.30
2022-09-04T00:22:00.368Z,18.30
2022-09-04T00:24:37.150Z,18.30
2022-09-04T00:27:18.940Z,18.30
2022-09-04T00:29:54.074Z,18.30
2022-09-04T00:32:41.077Z,18.30
2022-09-04T00:35:23.279Z,18.30
2022-09-04T00:38:29.761Z,18.30
2022-09-04T00:41:26.132Z,18.30
2022-09-04T00:44:22.100Z,18.30
2022-09-04T00:47:13.413Z,18.30
2022-09-04T00:50:02.359Z,18.30
2022-09-04T00:53:06.010Z,18.30
2022-09-04T00:55:52.109Z,18.20
2022-09-04T00:58:44.173Z,18.20
2022-09-04T01:01:19.590Z,18.20
2022-09-04T01:04:15.073Z,18.20
2022-09-04T01:07:15.229Z,18.10
2022-09-04T01:09:56.486Z,18.10
2022-09-04T01:12:46.023Z,18.10
2022-09-04T01:15:42.214Z,18.10
2022-09-04T01:18:34.979Z,18.10
2022-09-04T01:21:24.937Z,18.10
2022-09-04T01:24:13.138Z,18.10
2022-09-04T01:27:21.799Z,18.10
2022-09-04T01:30:16.794Z,18.10
2022-09-04T01:33:08.073Z,18.10
2022-09-04T01:35:48.374Z,18.20
2022-09-04T01:38:23.746Z,18.20
2022-09-04T01:40:59.313Z,18.20
2022-09-04T01:43:32.027Z,18.10
2022-09-04T01:46:32.251Z,18.10
2022-09-04T01:49:18.299Z,18.10
2022-09-04T01:52:00.138Z,18.10
2022-09-04T01:54:36.981Z,18.00
2022-09-04T01:57:46.794Z,18.00
2022-09-04T02:00:21.337Z,17.90
2022-09-04T02:03:00.170Z,17.80
2022-09-04T02:05:39.267Z,17.80
2022-09-04T02:08:33.057Z,17.80
2022-09-04T02:11:28.197Z,17.70
2022-09-04T02:14:38.538Z,17.70
2022-09-04T02:17:25.377Z,17.60
2022-09-04T02:20:31.887Z,17.60
2022-09-04T02:23:23.879Z,17.60
2022-09-04T02:26:12.050Z,17.50
2022-09-04T02:28:57.581Z,17.50
2022-09-04T02:31:49.386Z,17.50
2022-09-04T02:34:57.543Z,17.50
2022-09-04T02:37:36.035Z,17.50
2022-09-04T02:40:16.376Z,17.50
2022-09-04T02:43:09.201Z,17.50
2022-09-04T02:46:36.685Z,17.50
2022-09-04T02:49:23.046Z,17.50
2022-09-04T02:52:09.927Z,17.50
2022-09-04T02:54:44.819Z,17.50
2022-09-04T02:58:05.216Z,17.40
2022-09-04T03:00:45.554Z,17.40
2022-09-04T03:03:24.643Z,17.40
2022-09-04T03:06:21.694Z,17.40
2022-09-04T03:09:01.049Z,17.40
2022-09-04T03:11:46.226Z,17.40
2022-09-04T03:14:28.376Z,17.40
2022-09-04T03:17:13.207Z,17.40
2022-09-04T03:19:51.012Z,17.40
2022-09-04T03:22:47.897Z,17.40
2022-09-04T03:25:47.670Z,17.40
2022-09-04T03:28:46.806Z,17.40
2022-09-04T03:31:43.549Z,17.40
2022-09-04T03:34:38.655Z,17.40
2022-09-04T03:37:17.340Z,17.40
2022-09-04T03:40:24.690Z,17.40
2022-09-04T03:43:21.133Z,17.50
2022-09-04T03:45:58.930Z,17.50
2022-09-04T03:48:34.022Z,17.60
2022-09-04T03:51:20.101Z,17.60
2022-09-04T03:54:28.925Z,17.70
2022-09-04T03:57:24.497Z,17.70
2022-09-04T04:00:08.284Z,17.70
2022-09-04T04:03:10.952Z,17.70
2022-09-04T04:06:06.021Z,17.70
2022-09-04T04:08:55.517Z,17.70
2022-09-04T04:11:43.347Z,17.60
2022-09-04T04:14:33.127Z,17.60
2022-09-04T04:17:29.388Z,17.50
2022-09-04T04:20:22.907Z,17.50
2022-09-04T04:22:59.887Z,17.50
2022-09-04T04:25:47.727Z,17.40
2022-09-04T04:28:44.161Z,17.40
2022-09-04T04:32:07.914Z,17.40
2022-09-04T04:34:46.592Z,17.30
2022-09-04T04:37:25.697Z,17.20
2022-09-04T04:40:33.836Z,17.20
2022-09-04T04:43:22.628Z,17.20
2022-09-04T04:46:02.380Z,17.10
2022-09-04T04:48:46.829Z,17.10
2022-09-04T04:51:48.720Z,17.10
2022-09-04T04:54:48.629Z,17.20
2022-09-04T04:57:39.728Z,17.20
2022-09-04T05:00:27.536Z,17.10
2022-09-04T05:03:20.501Z,17.20
2022-09-04T05:06:24.275Z,17.20
2022-09-04T05:09:12.817Z,17.20
2022-09-04T05:12:02.258Z,17.20
2022-09-04T05:14:40.069Z,17.30
2022-09-04T05:17:25.018Z,17.20
2022-09-04T05:20:39.751Z,17.20
2022-09-04T05:23:24.910Z,17.30
2022-09-04T05:26:20.359Z,17.30
2022-09-04T05:29:16.950Z,17.30
2022-09-04T05:32:21.111Z,17.30
2022-09-04T05:34:51.820Z,17.30
2022-09-04T05:37:44.187Z,17.30
2022-09-04T05:40:54.851Z,17.30
2022-09-04T05:43:59.571Z,17.30
2022-09-04T05:47:12.355Z,17.30
2022-09-04T05:50:08.301Z,17.30
2022-09-04T05:53:03.081Z,17.40
2022-09-04T05:55:33.221Z,17.40
2022-09-04T05:58:25.937Z,17.40
2022-09-04T06:01:38.874Z,17.50
2022-09-04T06:04:28.636Z,17.50
2022-09-04T06:07:37.095Z,17.60
2022-09-04T06:10:12.376Z,17.60
2022-09-04T06:13:19.316Z,17.60
2022-09-04T06:16:09.325Z,17.70
2022-09-04T06:19:04.198Z,17.70
2022-09-04T06:22:08.401Z,17.80
2022-09-04T06:24:47.930Z,17.90
2022-09-04T06:27:49.150Z,18.00
2022-09-04T06:30:20.948Z,18.10
2022-09-04T06:33:22.957Z,18.20
2022-09-04T06:36:12.122Z,18.30
2022-09-04T06:39:04.742Z,18.40
2022-09-04T06:41:56.220Z,18.40
2022-09-04T06:44:56.566Z,18.50
2022-09-04T06:47:48.360Z,18.60
2022-09-04T06:50:44.096Z,18.70
2022-09-04T06:53:20.060Z,18.90
2022-09-04T06:56:18.388Z,19.00
2022-09-04T06:59:13.976Z,19.10
2022-09-04T07:02:05.070Z,19.30
2022-09-04T07:04:48.036Z,19.50
2022-09-04T07:07:17.672Z,19.60
2022-09-04T07:09:58.701Z,19.80
2022-09-04T07:12:34.192Z,20.00
2022-09-04T07:15:38.038Z,20.30
2022-09-04T07:18:37.039Z,20.60
2022-09-04T07:21:39.616Z,21.20
2022-09-04T07:24:44.759Z,21.60
2022-09-04T07:27:46.434Z,22.00
2022-09-04T07:30:19.109Z,22.40
2022-09-04T07:32:57.542Z,22.60
2022-09-04T07:35:46.007Z,22.80
2022-09-04T07:38:50.594Z,23.00
2022-09-04T07:42:06.037Z,23.10
2022-09-04T07:44:42.382Z,23.20
2022-09-04T07:47:21.043Z,23.20
2022-09-04T07:50:08.797Z,23.20
2022-09-04T07:52:40.204Z,23.10
2022-09-04T07:55:45.313Z,23.10
2022-09-04T07:58:31.550Z,23.10
2022-09-04T08:01:43.457Z,23.20
2022-09-04T08:04:46.083Z,22.90
2022-09-04T08:07:24.904Z,22.40
2022-09-04T08:10:30.538Z,22.10
2022-09-04T08:13:14.167Z,21.90
2022-09-04T08:16:03.117Z,21.70
2022-09-04T08:19:09.334Z,21.80
2022-09-04T08:21:38.373Z,21.80
2022-09-04T08:24:31.816Z,21.60
2022-09-04T08:27:34.694Z,21.70
2022-09-04T08:30:21.826Z,21.80
2022-09-04T08:33:27.567Z,22.00
2022-09-04T08:36:04.336Z,22.10
2022-09-04T08:38:57.918Z,22.20
2022-09-04T08:41:57.760Z,22.60
2022-09-04T08:45:03.352Z,23.00
2022-09-04T08:48:01.036Z,23.50
2022-09-04T08:50:58.368Z,24.10
2022-09-04T08:53:46.987Z,24.50
2022-09-04T08:56:34.711Z,24.80
2022-09-04T08:59:19.819Z,25.10
2022-09-04T09:02:01.228Z,25.20
2022-09-04T09:05:15.763Z,25.30
2022-09-04T09:08:13.438Z,25.10
2022-09-04T09:10:54.058Z,24.70
2022-09-04T09:13:48.686Z,24.50
2022-09-04T09:16:22.499Z,24.20
2022-09-04T09:18:49.375Z,23.90
2022-09-04T09:21:45.617Z,23.60
2022-09-04T09:24:50.105Z,23.30
2022-09-04T09:27:38.527Z,23.00
2022-09-04T09:30:25.698Z,22.80
2022-09-04T09:33:17.096Z,22.60
2022-09-04T09:36:12.228Z,22.50
2022-09-04T09:39:22.529Z,22.60
2022-09-04T09:42:07.886Z,22.60
2022-09-04T09:44:50.046Z,22.50
2022-09-04T09:47:19.641Z,22.60
2022-09-04T09:50:12.856Z,22.80
2022-09-04T09:53:01.117Z,23.10
2022-09-04T09:55:27.898Z,23.20
2022-09-04T09:58:23.307Z,23.40
2022-09-04T10:00:59.819Z,23.70
2022-09-04T10:03:39.008Z,23.90
2022-09-04T10:06:38.824Z,23.90
2022-09-04T10:09:27.510Z,23.70
2022-09-04T10:15:08.068Z,23.50
2022-09-04T10:17:56.071Z,23.70
2022-09-04T10:20:50.913Z,23.80
2022-09-04T10:23:56.348Z,24.00
2022-09-04T10:26:41.998Z,23.90
2022-09-04T10:29:55.933Z,23.80
2022-09-04T10:32:44.731Z,23.60
2022-09-04T10:35:31.733Z,23.60
2022-09-04T10:38:14.551Z,23.60
2022-09-04T10:41:06.937Z,23.70
2022-09-04T10:43:54.244Z,24.00
2022-09-04T10:46:43.041Z,24.20
2022-09-04T10:49:20.069Z,24.20
2022-09-04T10:51:56.375Z,24.10
2022-09-04T10:54:30.364Z,24.10
2022-09-04T10:57:31.964Z,24.20
2022-09-04T11:00:13.955Z,24.50
2022-09-04T11:03:03.429Z,24.70
2022-09-04T11:05:51.290Z,24.90
2022-09-04T11:09:00.669Z,25.20
2022-09-04T11:11:46.329Z,25.20
2022-09-04T11:14:34.337Z,25.00
2022-09-04T11:17:21.658Z,24.80
2022-09-04T11:19:58.396Z,24.60
2022-09-04T11:22:37.185Z,24.40
2022-09-04T11:25:20.612Z,24.30
2022-09-04T11:28:36.101Z,24.20
2022-09-04T11:31:23.407Z,24.10
2022-09-04T11:34:20.180Z,24.00
2022-09-04T11:36:59.215Z,23.90
2022-09-04T11:39:56.889Z,23.90
2022-09-04T11:42:55.567Z,24.00
2022-09-04T11:45:48.827Z,23.80
2022-09-04T11:48:22.953Z,23.60
2022-09-04T11:51:07.989Z,23.50
2022-09-04T11:53:52.961Z,23.50
2022-09-04T11:56:41.648Z,23.50
2022-09-04T11:59:23.504Z,23.40
2022-09-04T12:02:43.917Z,23.40
2022-09-04T12:05:16.097Z,23.40
2022-09-04T12:07:59.364Z,23.20
2022-09-04T12:10:52.426Z,23.10
2022-09-04T12:13:27.574Z,23.10
2022-09-04T12:16:04.548Z,23.10
2022-09-04T12:18:41.798Z,22.90
2022-09-04T12:21:48.866Z,22.80
2022-09-04T12:24:41.148Z,22.80
2022-09-04T12:27:07.876Z,22.70
2022-09-04T12:29:56.464Z,22.70
2022-09-04T12:32:30.165Z,22.60
2022-09-04T12:35:31.740Z,22.50
2022-09-04T12:38:34.658Z,22.50
2022-09-04T12:41:22.606Z,22.70
2022-09-04T12:44:08.702Z,22.80
2022-09-04T12:47:07.075Z,22.80
2022-09-04T12:50:01.335Z,22.70
2022-09-04T12:52:40.944Z,22.70
2022-09-04T12:55:19.368Z,22.60
2022-09-04T12:58:05.444Z,22.60
2022-09-04T13:00:48.783Z,22.80
2022-09-04T13:03:29.673Z,22.80
2022-09-04T13:06:32.152Z,22.90
2022-09-04T13:09:02.766Z,23.00
2022-09-04T13:11:52.670Z,23.20
2022-09-04T13:14:28.541Z,23.20
2022-09-04T13:17:08.767Z,23.10
2022-09-04T13:19:45.974Z,23.00
2022-09-04T13:22:28.246Z,23.00
2022-09-04T13:25:16.608Z,23.00
2022-09-04T13:27:49.523Z,23.00
2022-09-04T13:30:20.786Z,23.00
2022-09-04T13:32:53.186Z,23.00
2022-09-04T13:35:20.127Z,22.90
2022-09-04T13:38:24.491Z,22.80
2022-09-04T13:41:30.185Z,22.90
2022-09-04T13:44:22.267Z,22.80
2022-09-04T13:47:11.195Z,22.70
2022-09-04T13:49:52.623Z,22.60
2022-09-04T13:53:04.652Z,22.60
2022-09-04T13:55:37.776Z,22.50
2022-09-04T13:58:11.615Z,22.50
2022-09-04T14:00:45.974Z,22.50
2022-09-04T14:03:56.160Z,22.60
2022-09-04T14:06:24.237Z,22.70
2022-09-04T14:08:55.683Z,22.80
2022-09-04T14:11:51.508Z,22.90
2022-09-04T14:14:40.546Z,23.00
2022-09-04T14:17:08.443Z,23.20
2022-09-04T14:19:57.664Z,23.40
2022-09-04T14:23:03.483Z,23.50
2022-09-04T14:25:36.249Z,23.70
2022-09-04T14:28:45.805Z,23.90
2022-09-04T14:31:35.258Z,24.10
2022-09-04T14:34:14.090Z,24.30
2022-09-04T14:37:08.168Z,24.40
2022-09-04T14:39:34.920Z,24.50
2022-09-04T14:42:12.268Z,24.70
2022-09-04T14:45:09.526Z,24.70
2022-09-04T14:47:55.048Z,24.80
2022-09-04T14:50:28.596Z,24.70
2022-09-04T14:55:42.925Z,24.80
2022-09-04T14:58:24.440Z,24.90
2022-09-04T15:01:11.355Z,24.90
2022-09-04T15:03:46.943Z,24.80
2022-09-04T15:06:24.424Z,24.70
2022-09-04T15:08:53.869Z,24.70
2022-09-04T15:11:32.052Z,24.60
2022-09-04T15:14:12.407Z,24.50
2022-09-04T15:16:44.361Z,24.50
2022-09-04T15:19:28.451Z,24.30
2022-09-04T15:22:11.268Z,24.30
2022-09-04T15:24:43.900Z,24.20
2022-09-04T15:27:31.120Z,24.20
2022-09-04T15:30:18.087Z,24.20
2022-09-04T15:32:44.878Z,24.20
2022-09-04T15:35:34.096Z,24.20
2022-09-04T15:38:18.200Z,24.10
2022-09-04T15:41:16.556Z,24.00
2022-09-04T15:43:53.999Z,24.00
2022-09-04T15:46:32.976Z,23.90
2022-09-04T15:49:30.460Z,23.90
2022-09-04T15:52:34.807Z,23.70
2022-09-04T15:55:10.757Z,23.70
2022-09-04T15:57:42.933Z,23.60
2022-09-04T16:00:11.501Z,23.50
2022-09-04T16:02:59.424Z,23.40
2022-09-04T16:05:41.596Z,23.20
2022-09-04T16:08:20.453Z,23.10
2022-09-04T16:10:57.491Z,22.90
2022-09-04T16:13:27.221Z,22.80
2022-09-04T16:16:04.180Z,22.70
2022-09-04T16:19:00.827Z,22.60
2022-09-04T16:21:40.657Z,22.60
2022-09-04T16:24:16.130Z,22.60
2022-09-04T16:26:48.194Z,22.50
2022-09-04T16:29:28.111Z,22.40
2022-09-04T16:31:56.058Z,22.40
2022-09-04T16:34:24.190Z,22.30
2022-09-04T16:37:28.428Z,22.30
2022-09-04T16:40:17.605Z,22.20
2022-09-04T16:42:48.096Z,22.10
2022-09-04T16:45:34.702Z,22.10
2022-09-04T16:48:21.898Z,22.20
2022-09-04T16:50:57.229Z,22.00
2022-09-04T16:53:29.394Z,22.00
2022-09-04T16:56:08.897Z,22.10
2022-09-04T16:58:47.137Z,22.00
2022-09-04T17:01:28.873Z,21.90
2022-09-04T17:04:13.251Z,21.90
2022-09-04T17:06:57.669Z,21.90
2022-09-04T17:09:32.290Z,21.90
2022-09-04T17:12:24.640Z,21.80
2022-09-04T17:15:25.590Z,21.80
2022-09-04T17:17:54.484Z,21.80
2022-09-04T17:20:33.639Z,21.80
2022-09-04T17:28:59.851Z,21.70
2022-09-04T17:29:08.633Z,21.70
2022-09-04T17:29:36.878Z,21.60
2022-09-04T17:33:52.164Z,21.60
2022-09-04T17:40:40.623Z,21.50
2022-09-04T17:40:51.766Z,21.40
2022-09-04T17:41:55.587Z,21.30
2022-09-04T17:44:34.384Z,21.30
2022-09-04T17:47:14.177Z,21.20
2022-09-04T17:49:53.340Z,21.20
2022-09-04T17:52:28.671Z,21.20
2022-09-04T17:55:11.419Z,21.20
2022-09-04T17:58:12.337Z,21.10
2022-09-04T18:01:13.896Z,21.00
2022-09-04T18:04:20.052Z,21.00
2022-09-04T18:06:39.983Z,21.00
2022-09-04T18:09:11.938Z,20.90
2022-09-04T18:11:45.938Z,20.90
2022-09-04T18:14:41.538Z,20.90
2022-09-04T18:17:21.901Z,20.80
2022-09-04T18:19:55.820Z,20.80
2022-09-04T18:22:44.468Z,20.70
2022-09-04T18:25:16.151Z,20.70
2022-09-04T18:28:06.185Z,20.70
2022-09-04T18:37:12.777Z,20.70
2022-09-04T18:37:19.825Z,20.60
2022-09-04T18:37:44.245Z,20.60
2022-09-04T18:40:21.546Z,20.60
2022-09-04T18:49:03.072Z,20.60
2022-09-04T18:50:32.229Z,20.50
2022-09-04T18:50:50.179Z,20.50
2022-09-04T18:51:54.988Z,20.50
2022-09-04T18:54:39.825Z,20.50
2022-09-04T18:57:24.533Z,20.50
2022-09-04T18:59:59.777Z,20.50
2022-09-04T19:02:53.341Z,20.40
2022-09-04T19:05:21.455Z,20.40
2022-09-04T19:07:52.957Z,20.40
2022-09-04T19:10:37.091Z,20.30
2022-09-04T19:13:22.445Z,20.20
2022-09-04T19:16:04.740Z,20.20
2022-09-04T19:18:58.827Z,20.10
2022-09-04T19:21:44.407Z,20.00
2022-09-04T19:24:49.987Z,20.00
2022-09-04T19:27:41.902Z,19.90
2022-09-04T19:30:23.807Z,19.80
2022-09-04T19:33:10.665Z,19.80
2022-09-04T19:35:56.796Z,19.70
2022-09-04T19:45:56.754Z,19.70
2022-09-04T19:45:59.933Z,19.70
2022-09-04T19:46:17.427Z,19.60
2022-09-04T19:47:40.628Z,19.60
2022-09-04T19:53:19.282Z,19.50
2022-09-04T19:53:33.252Z,19.50
2022-09-04T19:56:23.725Z,19.50
2022-09-04T19:58:53.589Z,19.50
2022-09-04T20:01:23.927Z,19.40
2022-09-04T20:03:56.137Z,19.30
2022-09-04T20:06:30.304Z,19.30
2022-09-04T20:09:21.627Z,19.20
2022-09-04T20:11:55.704Z,19.20
2022-09-04T20:14:32.008Z,19.10
2022-09-04T20:17:07.874Z,19.00
2022-09-04T20:19:38.744Z,18.90
2022-09-04T20:22:12.291Z,18.80
2022-09-04T20:25:05.923Z,18.70
2022-09-04T20:27:48.690Z,18.60
2022-09-04T20:30:24.910Z,18.60
2022-09-04T20:32:58.254Z,18.50
2022-09-04T20:35:44.880Z,18.40
2022-09-04T20:38:23.893Z,18.30
2022-09-04T20:41:15.871Z,18.20
2022-09-04T20:43:54.741Z,18.20
2022-09-04T20:52:42.701Z,18.20
2022-09-04T20:52:57.020Z,18.10
